createdAt,value
2022-10-11T00:01:34.475Z,22.41
2022-10-11T00:03:36.305Z,22.41
2022-10-11T00:05:38.175Z,22.40
2022-10-11T00:07:39.936Z,22.38
2022-10-11T00:09:41.597Z,22.38
2022-10-11T00:11:43.395Z,22.40
2022-10-11T00:13:45.106Z,22.37
2022-10-11T00:15:46.773Z,22.36
2022-10-11T00:17:48.480Z,22.37
2022-10-11T00:19:50.203Z,22.36
2022-10-11T00:21:52.073Z,22.35
2022-10-11T00:23:53.813Z,22.35
2022-10-11T00:26:03.699Z,22.37
2022-10-11T00:28:05.868Z,22.37
2022-10-11T00:30:08.248Z,22.38
2022-10-11T00:32:09.927Z,22.37
2022-10-11T00:34:11.588Z,22.38
2022-10-11T00:36:13.386Z,22.36
2022-10-11T00:38:15.448Z,22.34
2022-10-11T00:40:18.725Z,22.36
2022-10-11T00:42:20.373Z,22.36
2022-10-11T00:44:24.182Z,22.35
2022-10-11T00:46:27.385Z,22.36
2022-10-11T00:48:41.110Z,22.37
2022-10-11T00:50:42.826Z,22.37
2022-10-11T00:52:56.139Z,22.37
2022-10-11T00:55:23.640Z,22.38
2022-10-11T00:57:26.133Z,22.37
2022-10-11T00:59:29.642Z,22.36
2022-10-11T01:01:31.363Z,22.36
2022-10-11T01:03:33.091Z,22.36
2022-10-11T01:05:36.300Z,22.36
2022-10-11T01:07:38.164Z,22.35
2022-10-11T01:09:39.925Z,22.37
2022-10-11T01:11:41.897Z,22.38
2022-10-11T01:14:03.640Z,22.37
2022-10-11T01:16:31.955Z,22.37
2022-10-11T01:18:56.554Z,22.38
2022-10-11T01:21:18.476Z,22.38
2022-10-11T01:23:34.626Z,22.37
2022-10-11T01:26:08.888Z,22.38
2022-10-11T01:28:31.490Z,22.38
2022-10-11T01:30:34.378Z,22.40
2022-10-11T01:33:19.468Z,22.40
2022-10-11T01:35:45.105Z,22.38
2022-10-11T01:38:08.241Z,22.38
2022-10-11T01:40:15.198Z,22.38
2022-10-11T01:42:17.024Z,22.38
2022-10-11T01:44:18.738Z,22.41
2022-10-11T01:46:20.426Z,22.38
2022-10-11T01:48:22.099Z,22.37
2022-10-11T01:50:39.152Z,22.38
2022-10-11T01:52:40.858Z,22.38
2022-10-11T01:55:09.910Z,22.36
2022-10-11T01:57:27.675Z,22.39
2022-10-11T01:59:49.626Z,22.38
2022-10-11T02:01:54.359Z,22.42
2022-10-11T02:04:04.610Z,22.42
2022-10-11T02:06:10.405Z,22.41
2022-10-11T02:08:27.447Z,22.41
2022-10-11T02:10:36.146Z,22.38
2022-10-11T02:12:40.249Z,22.37
2022-10-11T02:14:43.904Z,22.36
2022-10-11T02:16:56.546Z,22.36
2022-10-11T02:18:58.308Z,22.37
2022-10-11T02:21:00.828Z,22.38
2022-10-11T02:23:30.178Z,22.36
2022-10-11T02:25:33.750Z,22.37
2022-10-11T02:27:36.860Z,22.35
2022-10-11T02:29:40.039Z,22.35
2022-10-11T02:31:41.762Z,22.34
2022-10-11T02:33:50.428Z,22.34
2022-10-11T02:35:56.133Z,22.35
2022-10-11T02:38:05.878Z,22.35
2022-10-11T02:40:14.910Z,22.35
2022-10-11T02:42:26.148Z,22.34
2022-10-11T02:44:31.296Z,22.35
2022-10-11T02:46:33.038Z,22.37
2022-10-11T02:48:34.761Z,22.36
2022-10-11T02:50:37.439Z,22.35
2022-10-11T02:52:39.242Z,22.35
2022-10-11T02:54:40.958Z,22.35
2022-10-11T02:56:42.797Z,22.34
2022-10-11T02:58:44.573Z,22.34
2022-10-11T03:00:46.287Z,22.32
2022-10-11T03:02:47.957Z,22.31
2022-10-11T03:04:49.699Z,22.30
2022-10-11T03:06:51.413Z,22.30
2022-10-11T03:08:53.117Z,22.30
2022-10-11T03:10:54.924Z,22.31
2022-10-11T03:12:56.567Z,22.30
2022-10-11T03:14:58.238Z,22.28
2022-10-11T03:17:17.357Z,22.26
2022-10-11T03:19:21.643Z,22.27
2022-10-11T03:21:23.403Z,22.27
2022-10-11T03:23:25.146Z,22.27
2022-10-11T03:25:26.876Z,22.28
2022-10-11T03:27:28.657Z,22.28
2022-10-11T03:29:30.360Z,22.28
2022-10-11T03:31:32.036Z,22.27
2022-10-11T03:33:33.704Z,22.28
2022-10-11T03:35:35.371Z,22.29
2022-10-11T03:37:37.135Z,22.28
2022-10-11T03:39:38.889Z,22.32
2022-10-11T03:41:40.740Z,22.42
2022-10-11T03:43:42.421Z,22.37
2022-10-11T03:45:44.060Z,22.36
2022-10-11T03:47:45.838Z,22.35
2022-10-11T03:49:47.545Z,22.34
2022-10-11T03:51:49.210Z,22.31
2022-10-11T03:53:50.876Z,22.30
2022-10-11T03:55:53.778Z,22.51
2022-10-11T03:57:55.681Z,22.54
2022-10-11T03:59:57.332Z,22.57
2022-10-11T04:01:59.214Z,22.55
2022-10-11T04:04:00.988Z,22.58
2022-10-11T04:06:03.014Z,22.60
2022-10-11T04:08:09.739Z,22.57
2022-10-11T04:10:13.635Z,22.53
2022-10-11T04:12:15.282Z,22.54
2022-10-11T04:14:17.020Z,22.62
2022-10-11T04:16:18.822Z,22.76
2022-10-11T04:18:20.602Z,22.85
2022-10-11T04:20:22.828Z,22.97
2022-10-11T04:22:24.606Z,23.00
2022-10-11T04:24:26.332Z,23.04
2022-10-11T04:26:30.238Z,23.03
2022-10-11T04:28:32.788Z,23.03
2022-10-11T04:30:34.556Z,23.09
2022-10-11T04:32:36.267Z,23.11
2022-10-11T04:34:38.018Z,23.15
2022-10-11T04:36:39.788Z,23.16
2022-10-11T04:38:41.540Z,23.19
2022-10-11T04:40:43.210Z,23.18
2022-10-11T04:42:44.980Z,23.19
2022-10-11T04:44:46.685Z,23.21
2022-10-11T04:46:48.430Z,23.23
2022-10-11T04:48:50.330Z,23.24
2022-10-11T04:50:51.995Z,23.26
2022-10-11T04:52:53.694Z,23.26
2022-10-11T04:54:55.345Z,23.26
2022-10-11T04:56:57.064Z,23.28
2022-10-11T04:58:58.807Z,23.28
2022-10-11T05:01:00.527Z,23.19
2022-10-11T05:03:02.165Z,23.16
2022-10-11T05:05:04.071Z,23.15
2022-10-11T05:07:05.794Z,23.14
2022-10-11T05:09:07.451Z,23.14
2022-10-11T05:11:12.838Z,23.13
2022-10-11T05:13:15.707Z,23.12
2022-10-11T05:15:17.464Z,23.12
2022-10-11T05:17:19.092Z,23.12
2022-10-11T05:19:20.796Z,23.11
2022-10-11T05:21:27.075Z,23.12
2022-10-11T05:23:29.765Z,23.12
2022-10-11T05:25:31.471Z,23.11
2022-10-11T05:27:33.159Z,23.10
2022-10-11T05:29:34.816Z,23.11
2022-10-11T05:31:36.507Z,23.11
2022-10-11T05:33:38.285Z,23.09
2022-10-11T05:35:40.135Z,23.09
2022-10-11T05:37:41.898Z,23.09
2022-10-11T05:39:43.559Z,23.07
2022-10-11T05:41:45.751Z,23.08
2022-10-11T05:43:47.440Z,23.07
2022-10-11T05:45:49.409Z,23.07
2022-10-11T05:47:51.158Z,23.06
2022-10-11T05:49:52.888Z,23.07
2022-10-11T05:51:54.579Z,23.07
2022-10-11T05:53:56.275Z,23.05
2022-10-11T05:55:58.064Z,23.06
2022-10-11T05:57:59.723Z,23.05
2022-10-11T06:00:01.421Z,23.05
2022-10-11T06:02:03.139Z,23.06
2022-10-11T06:04:04.978Z,23.06
2022-10-11T06:06:06.936Z,23.04
2022-10-11T06:08:09.074Z,23.06
2022-10-11T06:10:10.810Z,23.05
2022-10-11T06:12:12.457Z,23.05
2022-10-11T06:14:14.149Z,23.05
2022-10-11T06:16:15.929Z,23.06
2022-10-11T06:18:17.648Z,23.05
2022-10-11T06:20:19.371Z,23.06
2022-10-11T06:22:21.125Z,23.07
2022-10-11T06:24:22.890Z,23.05
2022-10-11T06:26:24.536Z,23.06
2022-10-11T06:28:27.397Z,23.05
2022-10-11T06:30:29.101Z,23.06
2022-10-11T06:32:30.831Z,23.07
2022-10-11T06:34:32.568Z,23.05
2022-10-11T06:36:34.244Z,23.06
2022-10-11T06:38:37.283Z,23.05
2022-10-11T06:40:40.508Z,23.06
2022-10-11T06:42:42.262Z,23.05
2022-10-11T06:44:44.058Z,23.06
2022-10-11T06:46:45.782Z,23.04
2022-10-11T06:48:49.838Z,23.05
2022-10-11T06:51:00.327Z,23.04
2022-10-11T06:53:02.464Z,23.06
2022-10-11T06:55:04.476Z,23.07
2022-10-11T06:57:06.171Z,23.06
2022-10-11T06:59:08.675Z,23.05
2022-10-11T07:01:12.130Z,23.06
2022-10-11T07:03:13.970Z,23.05
2022-10-11T07:05:16.632Z,23.06
2022-10-11T07:07:18.365Z,23.05
2022-10-11T07:09:20.117Z,23.05
2022-10-11T07:11:23.985Z,23.04
2022-10-11T07:13:25.657Z,23.07
2022-10-11T07:15:27.353Z,23.06
2022-10-11T07:17:29.112Z,23.05
2022-10-11T07:19:30.854Z,23.05
2022-10-11T07:22:02.762Z,23.05
2022-10-11T07:24:04.731Z,23.05
2022-10-11T07:26:06.910Z,23.06
2022-10-11T07:28:08.919Z,23.05
2022-10-11T07:30:11.124Z,23.07
2022-10-11T07:32:12.813Z,23.06
2022-10-11T07:34:14.506Z,23.05
2022-10-11T07:36:16.414Z,23.05
2022-10-11T07:38:18.117Z,23.05
2022-10-11T07:40:19.780Z,23.05
2022-10-11T07:42:21.436Z,23.06
2022-10-11T07:44:23.179Z,23.05
2022-10-11T07:46:24.864Z,23.07
2022-10-11T07:48:26.592Z,23.05
2022-10-11T07:50:28.299Z,23.05
2022-10-11T07:52:30.009Z,23.05
2022-10-11T07:54:31.687Z,23.06
2022-10-11T07:56:33.440Z,23.05
2022-10-11T07:58:35.144Z,23.05
2022-10-11T08:00:36.860Z,23.05
2022-10-11T08:02:38.584Z,23.05
2022-10-11T08:04:40.366Z,23.05
2022-10-11T08:06:42.063Z,23.06
2022-10-11T08:08:43.718Z,23.05
2022-10-11T08:10:45.526Z,23.05
2022-10-11T08:12:47.895Z,23.07
2022-10-11T08:14:49.487Z,23.05
2022-10-11T08:16:51.132Z,23.05
2022-10-11T08:18:52.798Z,23.05
2022-10-11T08:20:54.477Z,23.06
2022-10-11T08:22:56.111Z,23.06
2022-10-11T08:24:57.792Z,23.05
2022-10-11T08:26:59.516Z,23.05
2022-10-11T08:29:01.423Z,23.04
2022-10-11T08:31:03.221Z,23.05
2022-10-11T08:33:08.364Z,23.06
2022-10-11T08:35:10.470Z,23.05
2022-10-11T08:37:12.144Z,23.05
2022-10-11T08:39:14.122Z,23.05
2022-10-11T08:41:28.785Z,23.05
2022-10-11T08:43:37.400Z,23.04
2022-10-11T08:45:44.538Z,23.06
2022-10-11T08:47:46.242Z,23.05
2022-10-11T08:49:47.911Z,23.05
2022-10-11T08:51:59.939Z,23.05
2022-10-11T08:54:12.180Z,23.07
2022-10-11T08:56:14.092Z,23.06
2022-10-11T08:58:21.061Z,23.06
2022-10-11T09:00:23.526Z,23.06
2022-10-11T09:03:08.042Z,23.05
2022-10-11T09:05:13.876Z,23.05
2022-10-11T09:07:30.464Z,23.06
2022-10-11T09:09:53.625Z,23.05
2022-10-11T09:12:29.517Z,23.06
2022-10-11T09:14:52.243Z,23.07
2022-10-11T09:17:12.569Z,23.06
2022-10-11T09:19:38.646Z,23.05
2022-10-11T09:21:45.847Z,23.06
2022-10-11T09:24:12.513Z,23.06
2022-10-11T09:26:38.897Z,23.06
2022-10-11T09:28:51.035Z,23.05
2022-10-11T09:30:53.084Z,23.06
2022-10-11T09:33:11.131Z,23.06
2022-10-11T09:35:18.196Z,23.07
2022-10-11T09:37:29.878Z,23.06
2022-10-11T09:39:35.317Z,23.06
2022-10-11T09:41:42.984Z,23.06
2022-10-11T09:43:48.226Z,23.07
2022-10-11T09:45:49.980Z,23.07
2022-10-11T09:47:52.780Z,23.07
2022-10-11T09:50:14.641Z,23.07
2022-10-11T09:52:20.996Z,23.07
2022-10-11T09:54:39.682Z,23.07
2022-10-11T09:56:43.837Z,23.07
2022-10-11T09:58:45.525Z,23.07
2022-10-11T10:00:47.205Z,23.08
2022-10-11T10:02:56.093Z,23.08
2022-10-11T10:05:01.772Z,23.08
2022-10-11T10:07:10.386Z,23.07
2022-10-11T10:09:30.051Z,23.07
2022-10-11T10:11:36.480Z,23.08
2022-10-11T10:13:46.077Z,23.08
2022-10-11T10:15:49.319Z,23.06
2022-10-11T10:17:52.094Z,23.07
2022-10-11T10:19:54.975Z,23.07
2022-10-11T10:21:56.704Z,23.08
2022-10-11T10:23:59.220Z,23.07
2022-10-11T10:26:30.052Z,23.08
2022-10-11T10:28:31.806Z,23.08
2022-10-11T10:30:35.637Z,23.10
2022-10-11T10:32:51.574Z,23.09
2022-10-11T10:35:15.935Z,23.09
2022-10-11T10:37:32.435Z,23.08
2022-10-11T10:39:50.189Z,23.08
2022-10-11T10:41:51.985Z,23.08
2022-10-11T10:43:56.337Z,23.08
2022-10-11T10:45:57.804Z,23.08
2022-10-11T10:48:42.272Z,23.09
2022-10-11T10:51:01.104Z,23.08
2022-10-11T10:53:52.993Z,23.10
2022-10-11T10:56:17.493Z,23.09
2022-10-11T10:58:40.079Z,23.09
2022-10-11T11:00:44.596Z,23.10
2022-10-11T11:03:02.484Z,23.09
2022-10-11T11:05:41.226Z,23.09
2022-10-11T11:08:09.856Z,23.08
2022-10-11T11:10:20.263Z,23.09
2022-10-11T11:12:48.672Z,23.09
2022-10-11T11:14:59.908Z,23.09
2022-10-11T11:17:27.262Z,23.10
2022-10-11T11:19:57.653Z,23.09
2022-10-11T11:22:10.831Z,23.09
2022-10-11T11:24:21.122Z,23.11
2022-10-11T11:26:44.539Z,23.09
2022-10-11T11:29:01.119Z,23.10
2022-10-11T11:31:21.711Z,23.09
2022-10-11T11:33:23.233Z,23.10
2022-10-11T11:35:33.343Z,23.09
2022-10-11T11:37:36.983Z,23.11
2022-10-11T11:40:15.587Z,23.11
2022-10-11T11:42:23.202Z,23.10
2022-10-11T11:44:32.983Z,23.10
2022-10-11T11:46:38.574Z,23.10
2022-10-11T11:48:40.278Z,23.12
2022-10-11T11:50:43.341Z,23.12
2022-10-11T11:52:47.107Z,23.12
2022-10-11T11:55:03.763Z,23.11
2022-10-11T11:57:24.373Z,23.12
2022-10-11T11:59:44.695Z,23.11
2022-10-11T12:02:40.378Z,23.12
2022-10-11T12:04:42.894Z,23.14
2022-10-11T12:07:11.111Z,23.13
2022-10-11T12:09:18.457Z,23.13
2022-10-11T12:11:41.305Z,23.14
2022-10-11T12:13:42.981Z,23.14
2022-10-11T12:15:56.665Z,23.14
2022-10-11T12:18:03.113Z,23.13
2022-10-11T12:20:13.010Z,23.13
2022-10-11T12:22:18.534Z,23.14
2022-10-11T12:24:20.099Z,23.15
2022-10-11T12:26:27.619Z,23.15
2022-10-11T12:28:38.430Z,23.14
2022-10-11T12:30:48.877Z,23.15
2022-10-11T12:32:50.932Z,23.14
2022-10-11T12:34:52.689Z,23.15
2022-10-11T12:36:54.404Z,23.15
2022-10-11T12:39:20.925Z,23.15
2022-10-11T12:41:25.299Z,23.16
2022-10-11T12:43:28.036Z,23.15
2022-10-11T12:45:31.117Z,23.16
2022-10-11T12:47:37.760Z,23.17
2022-10-11T12:49:54.167Z,23.17
2022-10-11T12:51:58.935Z,23.17
2022-10-11T12:54:26.658Z,23.19
2022-10-11T12:56:44.110Z,23.19
2022-10-11T12:58:48.987Z,23.20
2022-10-11T13:00:53.233Z,23.21
2022-10-11T13:02:56.004Z,23.24
2022-10-11T13:05:35.217Z,23.26
2022-10-11T13:07:37.055Z,23.29
2022-10-11T13:09:39.313Z,23.31
2022-10-11T13:12:07.754Z,23.31
2022-10-11T13:14:20.836Z,23.35
2022-10-11T13:16:28.218Z,23.36
2022-10-11T13:18:30.142Z,23.40
2022-10-11T13:20:36.269Z,23.42
2022-10-11T13:22:40.591Z,23.45
2022-10-11T13:24:42.285Z,23.46
2022-10-11T13:26:45.417Z,23.47
2022-10-11T13:28:47.116Z,23.46
2022-10-11T13:30:51.304Z,23.38
2022-10-11T13:32:54.650Z,23.34
2022-10-11T13:35:02.867Z,23.33
2022-10-11T13:37:04.814Z,23.31
2022-10-11T13:39:06.551Z,23.31
2022-10-11T13:41:11.561Z,23.26
2022-10-11T13:43:13.318Z,23.32
2022-10-11T13:45:17.079Z,23.28
2022-10-11T13:47:20.489Z,23.26
2022-10-11T13:49:26.149Z,23.23
2022-10-11T13:51:33.344Z,23.19
2022-10-11T13:53:35.318Z,23.17
2022-10-11T13:55:50.097Z,23.14
2022-10-11T13:57:51.770Z,23.13
2022-10-11T13:59:53.528Z,23.13
2022-10-11T14:01:58.629Z,23.09
2022-10-11T14:04:01.719Z,23.19
2022-10-11T14:06:03.873Z,23.47
2022-10-11T14:08:08.033Z,23.78
2022-10-11T14:10:21.177Z,24.18
2022-10-11T14:12:39.932Z,24.32
2022-10-11T14:14:42.018Z,24.45
2022-10-11T14:16:48.075Z,24.77
2022-10-11T14:18:50.993Z,24.92
2022-10-11T14:20:52.685Z,25.05
2022-10-11T14:22:54.670Z,25.10
2022-10-11T14:24:56.558Z,25.22
2022-10-11T14:26:58.513Z,25.27
2022-10-11T14:29:01.825Z,25.31
2022-10-11T14:31:03.741Z,25.47
2022-10-11T14:33:05.733Z,25.53
2022-10-11T14:35:10.352Z,25.60
2022-10-11T14:37:13.645Z,25.77
2022-10-11T14:39:23.757Z,25.78
2022-10-11T14:41:25.433Z,25.83
2022-10-11T14:43:27.181Z,25.93
2022-10-11T14:45:28.873Z,25.70
2022-10-11T14:47:30.961Z,25.44
2022-10-11T14:49:34.734Z,25.40
2022-10-11T14:51:36.525Z,25.43
2022-10-11T14:53:40.873Z,25.56
2022-10-11T14:55:42.907Z,25.89
2022-10-11T14:57:44.766Z,25.86
2022-10-11T14:59:49.948Z,25.81
2022-10-11T15:01:51.973Z,25.64
2022-10-11T15:03:53.731Z,25.69
2022-10-11T15:05:55.455Z,25.81
2022-10-11T15:07:57.625Z,25.87
2022-10-11T15:09:59.312Z,25.88
2022-10-11T15:12:01.014Z,25.88
2022-10-11T15:14:02.692Z,25.89
2022-10-11T15:16:04.806Z,25.80
2022-10-11T15:18:07.439Z,25.74
2022-10-11T15:20:21.959Z,25.65
2022-10-11T15:22:23.778Z,25.64
2022-10-11T15:24:25.568Z,25.63
2022-10-11T15:26:28.493Z,25.82
2022-10-11T15:28:31.482Z,25.83
2022-10-11T15:30:41.080Z,25.91
2022-10-11T15:32:43.580Z,25.86
2022-10-11T15:34:45.293Z,25.87
2022-10-11T15:36:47.285Z,26.03
2022-10-11T15:38:49.370Z,25.85
2022-10-11T15:40:51.082Z,25.78
2022-10-11T15:42:53.787Z,25.70
2022-10-11T15:44:55.463Z,25.73
2022-10-11T15:46:57.536Z,25.87
2022-10-11T15:49:02.191Z,25.79
2022-10-11T15:51:06.179Z,25.71
2022-10-11T15:53:15.772Z,25.87
2022-10-11T15:55:18.041Z,25.78
2022-10-11T15:57:20.120Z,25.59
2022-10-11T15:59:21.868Z,25.40
2022-10-11T16:01:23.636Z,25.37
2022-10-11T16:03:26.767Z,25.08
2022-10-11T16:05:28.658Z,25.20
2022-10-11T16:07:30.447Z,25.25
2022-10-11T16:09:32.429Z,25.33
2022-10-11T16:11:34.100Z,25.27
2022-10-11T16:13:35.937Z,25.73
2022-10-11T16:15:38.851Z,25.47
2022-10-11T16:17:40.602Z,25.59
2022-10-11T16:19:42.375Z,25.72
2022-10-11T16:21:44.310Z,25.78
2022-10-11T16:23:46.004Z,25.84
2022-10-11T16:25:56.904Z,25.81
2022-10-11T16:27:58.877Z,26.06
2022-10-11T16:30:00.851Z,26.14
2022-10-11T16:32:02.566Z,26.41
2022-10-11T16:34:04.603Z,26.12
2022-10-11T16:36:07.233Z,26.56
2022-10-11T16:38:09.701Z,26.66
2022-10-11T16:40:12.290Z,26.42
2022-10-11T16:42:14.256Z,26.49
2022-10-11T16:44:17.685Z,26.27
2022-10-11T16:46:19.847Z,26.33
2022-10-11T16:48:21.613Z,26.39
2022-10-11T16:50:23.285Z,26.19
2022-10-11T16:52:25.197Z,26.25
2022-10-11T16:54:26.962Z,26.36
2022-10-11T16:56:29.072Z,26.71
2022-10-11T16:58:30.771Z,26.50
2022-10-11T17:00:32.559Z,26.79
2022-10-11T17:02:34.348Z,26.76
2022-10-11T17:04:36.137Z,26.38
2022-10-11T17:06:37.946Z,26.45
2022-10-11T17:08:39.764Z,26.42
2022-10-11T17:10:41.767Z,26.38
2022-10-11T17:12:47.725Z,26.38
2022-10-11T17:14:51.665Z,26.60
2022-10-11T17:16:54.286Z,26.48
2022-10-11T17:18:56.051Z,26.61
2022-10-11T17:21:05.099Z,26.95
2022-10-11T17:23:06.851Z,26.38
2022-10-11T17:25:08.843Z,26.42
2022-10-11T17:27:10.706Z,26.75
2022-10-11T17:29:13.694Z,26.72
2022-10-11T17:31:15.485Z,26.44
2022-10-11T17:33:19.774Z,25.99
2022-10-11T17:35:21.570Z,26.01
2022-10-11T17:37:23.207Z,26.13
2022-10-11T17:39:25.516Z,26.11
2022-10-11T17:41:31.852Z,26.69
2022-10-11T17:43:34.427Z,26.12
2022-10-11T17:45:36.480Z,26.15
2022-10-11T17:47:38.898Z,26.18
2022-10-11T17:49:40.814Z,26.45
2022-10-11T17:51:42.644Z,26.54
2022-10-11T17:53:50.536Z,26.25
2022-10-11T17:55:52.998Z,26.03
2022-10-11T17:57:54.705Z,26.31
2022-10-11T17:59:56.436Z,25.69
2022-10-11T18:01:58.378Z,25.33
2022-10-11T18:04:01.525Z,25.15
2022-10-11T18:06:06.994Z,24.99
2022-10-11T18:08:08.752Z,24.46
2022-10-11T18:10:10.588Z,24.29
2022-10-11T18:12:12.368Z,24.36
2022-10-11T18:14:14.362Z,24.30
2022-10-11T18:16:18.934Z,24.15
2022-10-11T18:18:21.081Z,24.14
2022-10-11T18:20:22.743Z,24.14
2022-10-11T18:22:24.615Z,24.16
2022-10-11T18:24:27.464Z,24.13
2022-10-11T18:26:30.936Z,24.10
2022-10-11T18:28:35.473Z,24.01
2022-10-11T18:30:44.495Z,23.99
2022-10-11T18:32:46.212Z,23.94
2022-10-11T18:34:49.257Z,23.92
2022-10-11T18:36:51.067Z,23.79
2022-10-11T18:38:54.347Z,23.72
2022-10-11T18:40:56.146Z,23.85
2022-10-11T18:42:58.008Z,23.84
2022-10-11T18:44:59.867Z,23.80
2022-10-11T18:47:01.707Z,23.86
2022-10-11T18:49:03.560Z,23.88
2022-10-11T18:51:07.047Z,23.87
2022-10-11T18:53:08.998Z,23.83
2022-10-11T18:55:12.310Z,23.81
2022-10-11T18:57:15.098Z,23.75
2022-10-11T18:59:16.770Z,23.72
2022-10-11T19:01:29.542Z,23.68
2022-10-11T19:03:34.942Z,23.65
2022-10-11T19:05:39.230Z,23.60
2022-10-11T19:07:40.868Z,23.60
2022-10-11T19:09:42.714Z,23.60
2022-10-11T19:11:44.459Z,23.57
2022-10-11T19:13:46.286Z,23.56
2022-10-11T19:15:48.056Z,23.55
2022-10-11T19:17:49.839Z,23.56
2022-10-11T19:19:51.520Z,23.55
2022-10-11T19:21:53.320Z,23.52
2022-10-11T19:23:55.404Z,23.49
2022-10-11T19:25:57.647Z,23.48
2022-10-11T19:27:59.397Z,23.45
2022-10-11T19:30:01.106Z,23.45
2022-10-11T19:32:03.030Z,23.45
2022-10-11T19:34:11.127Z,23.42
2022-10-11T19:36:13.245Z,23.40
2022-10-11T19:38:15.110Z,23.37
2022-10-11T19:40:17.319Z,23.36
2022-10-11T19:42:19.122Z,23.37
2022-10-11T19:44:20.828Z,23.35
2022-10-11T19:48:44.347Z,23.34
2022-10-11T19:50:46.035Z,23.34
2022-10-11T19:52:47.706Z,23.36
2022-10-11T19:54:49.380Z,23.34
2022-10-11T19:56:51.209Z,23.34
2022-10-11T19:58:52.937Z,23.33
2022-10-11T20:01:06.294Z,23.31
2022-10-11T20:03:08.197Z,23.28
2022-10-11T20:05:09.986Z,23.28
2022-10-11T20:07:11.693Z,23.26
2022-10-11T20:09:30.378Z,23.25
2022-10-11T20:11:32.207Z,23.24
2022-10-11T20:13:35.116Z,23.22
2022-10-11T20:15:39.866Z,23.21
2022-10-11T20:17:41.615Z,23.23
2022-10-11T20:19:43.318Z,23.22
2022-10-11T20:21:45.336Z,23.19
2022-10-11T20:23:47.592Z,23.18
2022-10-11T20:26:03.047Z,23.19
2022-10-11T20:28:04.809Z,23.16
2022-10-11T20:30:06.894Z,23.16
2022-10-11T20:32:08.658Z,23.15
2022-10-11T20:34:10.454Z,23.14
2022-10-11T20:36:14.166Z,23.13
2022-10-11T20:38:15.913Z,23.12
2022-10-11T20:40:17.772Z,23.13
2022-10-11T20:42:19.467Z,23.04
2022-10-11T20:44:21.200Z,23.00
2022-10-11T20:46:24.531Z,23.03
2022-10-11T20:48:26.212Z,23.02
2022-10-11T20:50:27.923Z,22.99
2022-10-11T20:52:29.628Z,23.04
2022-10-11T20:54:31.340Z,23.02
2022-10-11T20:56:33.203Z,23.01
2022-10-11T20:58:34.879Z,23.00
2022-10-11T21:00:38.371Z,22.99
2022-10-11T21:02:40.188Z,22.97
2022-10-11T21:04:41.839Z,22.99
2022-10-11T21:06:43.538Z,22.99
2022-10-11T21:08:45.276Z,23.00
2022-10-11T21:10:53.920Z,23.00
2022-10-11T21:12:55.664Z,23.04
2022-10-11T21:14:57.341Z,23.03
2022-10-11T21:16:59.072Z,23.00
2022-10-11T21:19:01.231Z,22.99
2022-10-11T21:21:12.977Z,22.98
2022-10-11T21:23:14.847Z,22.96
2022-10-11T21:25:16.712Z,22.97
2022-10-11T21:27:18.381Z,22.96
2022-10-11T21:29:20.170Z,22.94
2022-10-11T21:31:22.304Z,22.93
2022-10-11T21:33:24.009Z,22.95
2022-10-11T21:35:28.615Z,22.92
2022-10-11T21:37:30.312Z,22.92
2022-10-11T21:39:32.078Z,22.92
2022-10-11T21:41:33.784Z,22.91
2022-10-11T21:43:35.659Z,22.92
2022-10-11T21:45:37.918Z,22.92
2022-10-11T21:47:39.927Z,22.89
2022-10-11T21:49:41.785Z,22.90
2022-10-11T21:51:43.667Z,22.90
2022-10-11T21:53:45.302Z,22.89
2022-10-11T21:55:47.064Z,22.88
2022-10-11T21:57:48.776Z,22.87
2022-10-11T21:59:50.493Z,22.88
2022-10-11T22:01:52.266Z,22.86
2022-10-11T22:03:54.223Z,22.85
2022-10-11T22:05:55.943Z,22.88
2022-10-11T22:07:57.694Z,22.83
2022-10-11T22:09:59.371Z,22.85
2022-10-11T22:12:02.096Z,22.86
2022-10-11T22:14:03.857Z,22.83
2022-10-11T22:16:06.663Z,22.84
2022-10-11T22:18:08.377Z,22.85
2022-10-11T22:20:10.292Z,22.83
2022-10-11T22:22:12.052Z,22.83
2022-10-11T22:24:13.785Z,22.86
2022-10-11T22:26:17.405Z,22.84
2022-10-11T22:28:19.248Z,22.84
2022-10-11T22:30:20.966Z,22.79
2022-10-11T22:32:22.714Z,22.78
2022-10-11T22:34:24.440Z,22.76
2022-10-11T22:36:26.980Z,22.75
2022-10-11T22:38:28.805Z,22.79
2022-10-11T22:40:30.586Z,22.82
2022-10-11T22:42:32.284Z,22.83
2022-10-11T22:44:34.062Z,22.85
2022-10-11T22:46:35.797Z,22.85
2022-10-11T22:48:37.500Z,22.83
2022-10-11T22:50:39.452Z,22.85
2022-10-11T22:52:41.189Z,22.83
2022-10-11T22:54:42.965Z,22.82
2022-10-11T22:56:44.718Z,22.79
2022-10-11T22:58:46.386Z,22.78
2022-10-11T23:00:48.067Z,22.78
2022-10-11T23:02:49.809Z,22.78
2022-10-11T23:04:51.570Z,22.80
2022-10-11T23:06:53.313Z,22.79
2022-10-11T23:08:58.450Z,22.79
2022-10-11T23:11:04.638Z,22.77
2022-10-11T23:13:06.405Z,22.78
2022-10-11T23:15:08.410Z,22.79
2022-10-11T23:17:10.115Z,22.79
2022-10-11T23:19:11.809Z,22.80
2022-10-11T23:21:13.508Z,22.76
2022-10-11T23:23:15.244Z,22.74
2022-10-11T23:25:17.170Z,22.76
2022-10-11T23:27:18.935Z,22.75
2022-10-11T23:29:20.673Z,22.74
2022-10-11T23:31:22.441Z,22.77
2022-10-11T23:33:24.176Z,22.78
2022-10-11T23:35:25.936Z,22.78
2022-10-11T23:37:27.642Z,22.77
2022-10-11T23:39:29.352Z,22.78
2022-10-11T23:41:31.211Z,22.76
2022-10-11T23:43:32.919Z,22.76
2022-10-11T23:45:34.624Z,22.77
2022-10-11T23:47:36.675Z,22.76
2022-10-11T23:49:38.632Z,22.77
2022-10-11T23:51:40.318Z,22.77
2022-10-11T23:53:42.320Z,22.77
2022-10-11T23:55:44.003Z,22.78
2022-10-11T23:57:45.719Z,22.79
2022-10-11T23:59:47.513Z,22.80
